createdAt,value
2023-07-24T00:01:56.205Z,15.46
2023-07-24T00:04:22.935Z,15.44
2023-07-24T00:06:49.557Z,15.44
2023-07-24T00:09:22.315Z,15.45
2023-07-24T00:11:48.985Z,15.42
2023-07-24T00:14:17.059Z,15.45
2023-07-24T00:16:43.811Z,15.45
2023-07-24T00:19:10.560Z,15.45
2023-07-24T00:21:37.266Z,15.49
2023-07-24T00:24:04.262Z,15.53
2023-07-24T00:26:31.149Z,15.57
2023-07-24T00:28:57.957Z,15.67
2023-07-24T00:31:24.482Z,15.75
2023-07-24T00:33:51.094Z,15.87
2023-07-24T00:36:17.647Z,15.89
2023-07-24T00:38:48.433Z,15.83
2023-07-24T00:41:15.103Z,15.76
2023-07-24T00:43:42.371Z,15.75
2023-07-24T00:46:11.538Z,15.70
2023-07-24T00:48:39.510Z,15.69
2023-07-24T00:51:06.865Z,15.69
2023-07-24T00:53:33.959Z,15.62
2023-07-24T00:56:00.834Z,15.58
2023-07-24T00:58:27.749Z,15.54
2023-07-24T01:00:55.050Z,15.49
2023-07-24T01:03:32.512Z,15.47
2023-07-24T01:05:59.086Z,15.43
2023-07-24T01:08:25.715Z,15.41
2023-07-24T01:10:52.314Z,15.40
2023-07-24T01:13:25.893Z,15.38
2023-07-24T01:16:04.165Z,15.37
2023-07-24T01:18:31.694Z,15.36
2023-07-24T01:20:59.875Z,15.34
2023-07-24T01:23:45.447Z,15.33
2023-07-24T01:26:14.109Z,15.34
2023-07-24T01:28:41.110Z,15.32
2023-07-24T01:31:08.098Z,15.31
2023-07-24T01:33:36.720Z,15.34
2023-07-24T01:36:05.320Z,15.36
2023-07-24T01:38:32.902Z,15.40
2023-07-24T01:41:00.308Z,15.43
2023-07-24T01:43:30.828Z,15.46
2023-07-24T01:45:57.533Z,15.44
2023-07-24T01:48:24.129Z,15.41
2023-07-24T01:50:51.327Z,15.40
2023-07-24T01:53:18.145Z,15.32
2023-07-24T01:55:44.682Z,15.17
2023-07-24T01:58:11.197Z,15.06
2023-07-24T02:00:37.940Z,14.98
2023-07-24T02:03:04.720Z,14.84
2023-07-24T02:05:31.501Z,14.80
2023-07-24T02:07:58.188Z,14.75
2023-07-24T02:10:25.144Z,14.70
2023-07-24T02:12:51.753Z,14.64
2023-07-24T02:15:18.456Z,14.61
2023-07-24T02:17:45.040Z,14.54
2023-07-24T02:20:11.737Z,14.48
2023-07-24T02:22:38.370Z,14.42
2023-07-24T02:25:05.262Z,14.38
2023-07-24T02:27:35.852Z,14.36
2023-07-24T02:30:04.267Z,14.37
2023-07-24T02:32:31.043Z,14.37
2023-07-24T02:34:57.927Z,14.37
2023-07-24T02:37:24.561Z,14.34
2023-07-24T02:39:52.648Z,14.36
2023-07-24T02:42:19.323Z,14.37
2023-07-24T02:44:46.097Z,14.38
2023-07-24T02:47:12.976Z,14.41
2023-07-24T02:49:39.629Z,14.42
2023-07-24T02:52:06.820Z,14.39
2023-07-24T02:54:33.450Z,14.38
2023-07-24T02:57:00.334Z,14.38
2023-07-24T02:59:26.970Z,14.39
2023-07-24T03:01:53.595Z,14.36
2023-07-24T03:04:21.018Z,14.33
2023-07-24T03:06:47.772Z,14.29
2023-07-24T03:09:14.524Z,14.27
2023-07-24T03:11:41.505Z,14.25
2023-07-24T03:14:08.150Z,14.21
2023-07-24T03:16:35.140Z,14.20
2023-07-24T03:19:01.755Z,14.18
2023-07-24T03:21:28.410Z,14.14
2023-07-24T03:23:58.453Z,14.12
2023-07-24T03:26:25.082Z,14.08
2023-07-24T03:28:51.698Z,14.07
2023-07-24T03:31:18.535Z,14.07
2023-07-24T03:33:45.364Z,14.07
2023-07-24T03:36:12.242Z,14.07
2023-07-24T03:38:38.937Z,14.08
2023-07-24T03:41:05.643Z,14.11
2023-07-24T03:43:32.534Z,14.10
2023-07-24T03:45:59.159Z,14.09
2023-07-24T03:48:26.050Z,14.09
2023-07-24T03:51:01.220Z,14.06
2023-07-24T03:53:28.538Z,14.08
2023-07-24T03:55:55.750Z,14.10
2023-07-24T03:58:22.790Z,14.15
2023-07-24T04:00:49.447Z,14.14
2023-07-24T04:03:17.409Z,14.17
2023-07-24T04:05:44.394Z,14.17
2023-07-24T04:08:10.936Z,14.17
2023-07-24T04:10:37.761Z,14.21
2023-07-24T04:13:04.376Z,14.23
2023-07-24T04:15:30.938Z,14.25
2023-07-24T04:17:57.695Z,14.25
2023-07-24T04:20:24.309Z,14.27
2023-07-24T04:22:50.993Z,14.28
2023-07-24T04:25:17.616Z,14.27
2023-07-24T04:27:44.361Z,14.26
2023-07-24T04:30:11.539Z,14.27
2023-07-24T04:32:38.290Z,14.27
2023-07-24T04:35:05.183Z,14.29
2023-07-24T04:37:31.704Z,14.29
2023-07-24T04:39:58.506Z,14.32
2023-07-24T04:42:25.070Z,14.35
2023-07-24T04:44:52.996Z,14.35
2023-07-24T04:47:19.692Z,14.36
2023-07-24T04:49:46.223Z,14.39
2023-07-24T04:52:12.871Z,14.46
2023-07-24T04:54:39.628Z,14.62
2023-07-24T04:57:06.370Z,14.80
2023-07-24T04:59:33.181Z,15.03
2023-07-24T05:02:00.113Z,15.19
2023-07-24T05:04:26.771Z,15.20
2023-07-24T05:06:53.285Z,15.29
2023-07-24T05:09:19.929Z,15.38
2023-07-24T05:11:46.542Z,15.30
2023-07-24T05:14:13.081Z,15.35
2023-07-24T05:16:40.117Z,15.49
2023-07-24T05:19:06.656Z,15.49
2023-07-24T05:21:33.202Z,15.44
2023-07-24T05:23:59.666Z,15.43
2023-07-24T05:26:26.279Z,15.48
2023-07-24T05:28:53.926Z,15.50
2023-07-24T05:31:20.805Z,15.45
2023-07-24T05:33:47.495Z,15.45
2023-07-24T05:36:14.446Z,15.66
2023-07-24T05:38:41.155Z,15.44
2023-07-24T05:41:08.001Z,15.33
2023-07-24T05:43:34.660Z,15.19
2023-07-24T05:46:02.789Z,15.14
2023-07-24T05:48:29.388Z,15.07
2023-07-24T05:50:56.096Z,15.01
2023-07-24T05:53:22.705Z,14.97
2023-07-24T05:55:58.234Z,14.94
2023-07-24T05:58:24.950Z,14.91
2023-07-24T06:00:53.040Z,14.92
2023-07-24T06:03:19.873Z,14.86
2023-07-24T06:05:47.138Z,14.78
2023-07-24T06:08:14.692Z,14.75
2023-07-24T06:10:41.330Z,14.71
2023-07-24T06:13:08.108Z,14.74
2023-07-24T06:15:34.871Z,14.62
2023-07-24T06:18:01.446Z,14.66
2023-07-24T06:20:28.010Z,14.57
2023-07-24T06:22:54.535Z,14.58
2023-07-24T06:25:21.114Z,14.59
2023-07-24T06:27:49.690Z,14.57
2023-07-24T06:30:16.800Z,14.54
2023-07-24T06:32:44.542Z,14.57
2023-07-24T06:35:11.175Z,14.57
2023-07-24T06:37:37.731Z,14.75
2023-07-24T06:40:04.707Z,14.90
2023-07-24T06:42:31.377Z,15.07
2023-07-24T06:44:57.914Z,15.19
2023-07-24T06:47:24.740Z,15.22
2023-07-24T06:49:51.272Z,15.29
2023-07-24T06:52:17.779Z,15.34
2023-07-24T06:54:44.333Z,15.35
2023-07-24T06:57:11.298Z,15.31
2023-07-24T06:59:38.528Z,15.32
2023-07-24T07:02:06.693Z,15.34
2023-07-24T07:04:33.438Z,15.37
2023-07-24T07:07:00.263Z,15.34
2023-07-24T07:09:26.813Z,15.26
2023-07-24T07:11:53.419Z,15.25
2023-07-24T07:14:19.963Z,15.26
2023-07-24T07:16:48.968Z,15.30
2023-07-24T07:19:15.687Z,15.37
2023-07-24T07:21:42.348Z,15.38
2023-07-24T07:24:08.851Z,15.32
2023-07-24T07:26:35.846Z,15.40
2023-07-24T07:29:02.510Z,15.47
2023-07-24T07:31:29.142Z,15.53
2023-07-24T07:33:55.837Z,15.41
2023-07-24T07:36:23.932Z,15.37
2023-07-24T07:38:50.473Z,15.37
2023-07-24T07:41:17.130Z,15.28
2023-07-24T07:43:43.928Z,15.39
2023-07-24T07:46:10.781Z,15.40
2023-07-24T07:48:38.140Z,15.45
2023-07-24T07:51:04.714Z,15.55
2023-07-24T07:53:32.792Z,15.90
2023-07-24T07:56:03.578Z,16.24
2023-07-24T07:58:30.411Z,16.53
2023-07-24T08:00:57.172Z,16.66
2023-07-24T08:03:24.176Z,16.66
2023-07-24T08:05:51.129Z,16.45
2023-07-24T08:08:18.067Z,16.11
2023-07-24T08:10:44.638Z,16.13
2023-07-24T08:13:11.454Z,16.28
2023-07-24T08:15:38.957Z,16.39
2023-07-24T08:18:06.326Z,16.43
2023-07-24T08:20:35.970Z,16.69
2023-07-24T08:23:04.851Z,16.96
2023-07-24T08:25:31.881Z,17.19
2023-07-24T08:28:05.392Z,17.94
2023-07-24T08:30:33.602Z,18.28
2023-07-24T08:33:00.609Z,18.36
2023-07-24T08:35:27.584Z,18.24
2023-07-24T08:37:54.282Z,17.84
2023-07-24T08:40:20.985Z,17.46
2023-07-24T08:42:50.331Z,17.22
2023-07-24T08:45:17.309Z,17.39
2023-07-24T08:47:48.206Z,17.79
2023-07-24T08:50:16.602Z,18.16
2023-07-24T08:52:44.368Z,18.52
2023-07-24T08:55:12.505Z,18.99
2023-07-24T08:57:39.618Z,19.02
2023-07-24T09:00:06.744Z,18.86
2023-07-24T09:02:35.045Z,18.89
2023-07-24T09:05:02.276Z,18.66
2023-07-24T09:07:30.782Z,18.84
2023-07-24T09:10:03.546Z,19.14
2023-07-24T09:12:30.039Z,18.95
2023-07-24T09:15:06.781Z,18.68
2023-07-24T09:17:34.351Z,18.87
2023-07-24T09:20:02.753Z,19.40
2023-07-24T09:22:29.553Z,19.57
2023-07-24T09:25:00.635Z,19.45
2023-07-24T09:27:31.704Z,19.71
2023-07-24T09:30:00.494Z,19.56
2023-07-24T09:32:29.106Z,20.00
2023-07-24T09:34:56.015Z,20.36
2023-07-24T09:37:32.147Z,20.11
2023-07-24T09:40:00.251Z,19.64
2023-07-24T09:42:38.932Z,19.58
2023-07-24T09:45:11.671Z,19.62
2023-07-24T09:50:11.230Z,19.35
2023-07-24T09:52:42.827Z,19.01
2023-07-24T09:55:12.740Z,19.00
2023-07-24T09:57:40.462Z,18.84
2023-07-24T10:00:08.747Z,18.43
2023-07-24T10:02:36.460Z,18.31
2023-07-24T10:05:03.140Z,18.07
2023-07-24T10:07:30.657Z,17.84
2023-07-24T10:09:58.906Z,17.64
2023-07-24T10:12:29.318Z,17.35
2023-07-24T10:14:56.991Z,17.25
2023-07-24T10:17:43.600Z,17.12
2023-07-24T10:20:12.376Z,17.25
2023-07-24T10:22:43.368Z,16.94
2023-07-24T10:25:12.654Z,16.83
2023-07-24T10:27:47.684Z,16.96
2023-07-24T10:32:49.805Z,16.94
2023-07-24T10:35:19.362Z,17.19
2023-07-24T10:37:46.038Z,16.90
2023-07-24T10:40:22.320Z,17.05
2023-07-24T10:43:00.477Z,17.19
2023-07-24T10:45:27.381Z,17.33
2023-07-24T10:47:54.942Z,16.97
2023-07-24T10:50:21.511Z,16.78
2023-07-24T10:52:48.635Z,16.84
2023-07-24T10:55:15.166Z,16.62
2023-07-24T10:57:41.996Z,17.22
2023-07-24T11:00:09.304Z,17.47
2023-07-24T11:02:36.983Z,17.37
2023-07-24T11:05:05.618Z,17.20
2023-07-24T11:07:36.678Z,16.65
2023-07-24T11:10:03.317Z,16.24
2023-07-24T11:12:40.368Z,15.95
2023-07-24T11:15:08.582Z,15.70
2023-07-24T11:17:41.600Z,15.65
2023-07-24T11:20:17.653Z,15.45
2023-07-24T11:22:45.497Z,15.42
2023-07-24T11:25:12.268Z,15.71
2023-07-24T11:27:40.929Z,16.21
2023-07-24T11:30:08.066Z,16.23
2023-07-24T11:32:34.651Z,16.68
2023-07-24T11:35:02.068Z,16.59
2023-07-24T11:37:28.946Z,16.94
2023-07-24T11:40:05.878Z,16.78
2023-07-24T11:42:32.747Z,16.59
2023-07-24T11:45:02.599Z,17.03
2023-07-24T11:47:31.135Z,17.47
2023-07-24T11:50:01.633Z,17.50
2023-07-24T11:52:48.741Z,17.04
2023-07-24T11:55:32.822Z,17.00
2023-07-24T11:58:01.025Z,17.34
2023-07-24T12:00:29.079Z,17.79
2023-07-24T12:03:01.405Z,17.78
2023-07-24T12:05:28.259Z,18.21
2023-07-24T12:07:56.338Z,18.02
2023-07-24T12:10:29.681Z,18.40
2023-07-24T12:13:00.197Z,18.31
2023-07-24T12:15:27.886Z,18.52
2023-07-24T12:17:54.833Z,18.60
2023-07-24T12:20:21.967Z,17.89
2023-07-24T12:22:48.552Z,17.67
2023-07-24T12:25:16.593Z,17.59
2023-07-24T12:27:43.730Z,17.87
2023-07-24T12:30:10.577Z,17.95
2023-07-24T12:32:38.324Z,18.36
2023-07-24T12:35:05.879Z,18.66
2023-07-24T12:37:32.789Z,18.87
2023-07-24T12:39:59.355Z,18.82
2023-07-24T12:42:27.823Z,19.04
2023-07-24T12:44:58.028Z,19.40
2023-07-24T12:47:26.574Z,19.39
2023-07-24T12:49:56.966Z,19.36
2023-07-24T12:52:23.745Z,19.29
2023-07-24T12:55:00.984Z,19.50
2023-07-24T12:57:28.582Z,19.35
2023-07-24T12:59:55.045Z,19.43
2023-07-24T13:02:22.882Z,19.06
2023-07-24T13:04:49.421Z,18.55
2023-07-24T13:07:16.029Z,18.66
2023-07-24T13:09:42.844Z,18.51
2023-07-24T13:12:15.590Z,17.79
2023-07-24T13:14:42.939Z,17.87
2023-07-24T13:17:13.359Z,18.00
2023-07-24T13:19:39.858Z,17.75
2023-07-24T13:22:07.211Z,17.89
2023-07-24T13:24:34.901Z,19.09
2023-07-24T13:27:02.273Z,19.08
2023-07-24T13:29:28.725Z,18.69
2023-07-24T13:31:55.544Z,18.82
2023-07-24T13:34:24.875Z,19.50
2023-07-24T13:36:51.476Z,19.43
2023-07-24T13:39:18.315Z,19.47
2023-07-24T13:41:46.139Z,19.05
2023-07-24T13:44:12.684Z,19.32
2023-07-24T13:46:40.827Z,19.75
2023-07-24T13:49:07.963Z,19.19
2023-07-24T13:51:34.702Z,19.23
2023-07-24T13:54:03.611Z,19.18
2023-07-24T13:56:34.535Z,18.93
2023-07-24T13:59:01.493Z,18.83
2023-07-24T14:01:28.172Z,18.50
2023-07-24T14:03:54.853Z,18.38
2023-07-24T14:06:21.608Z,18.47
2023-07-24T14:08:48.096Z,18.48
2023-07-24T14:11:15.849Z,18.77
2023-07-24T14:13:42.722Z,18.94
2023-07-24T14:16:09.606Z,19.13
2023-07-24T14:18:37.181Z,18.56
2023-07-24T14:21:04.540Z,18.18
2023-07-24T14:23:32.097Z,17.51
2023-07-24T14:25:58.829Z,16.75
2023-07-24T14:28:26.662Z,16.49
2023-07-24T14:30:53.279Z,16.66
2023-07-24T14:33:20.088Z,16.88
2023-07-24T14:35:46.874Z,17.28
2023-07-24T14:38:13.445Z,18.19
2023-07-24T14:40:41.179Z,18.25
2023-07-24T14:43:08.218Z,17.98
2023-07-24T14:45:35.089Z,17.52
2023-07-24T14:48:04.121Z,17.50
2023-07-24T14:50:31.263Z,17.71
2023-07-24T14:52:57.958Z,18.02
2023-07-24T14:55:24.596Z,18.42
2023-07-24T14:57:51.144Z,18.45
2023-07-24T15:00:18.034Z,18.27
2023-07-24T15:02:47.450Z,18.32
2023-07-24T15:05:14.037Z,18.26
2023-07-24T15:07:41.068Z,18.02
2023-07-24T15:10:08.182Z,18.01
2023-07-24T15:12:34.924Z,17.82
2023-07-24T15:15:01.414Z,17.44
2023-07-24T15:17:28.451Z,17.23
2023-07-24T15:19:55.053Z,17.14
2023-07-24T15:22:22.122Z,17.00
2023-07-24T15:24:50.532Z,16.88
2023-07-24T15:27:17.301Z,16.90
2023-07-24T15:29:44.006Z,16.79
2023-07-24T15:32:10.974Z,16.72
2023-07-24T15:34:39.608Z,16.76
2023-07-24T15:37:07.179Z,16.92
2023-07-24T15:39:34.036Z,16.57
2023-07-24T15:42:00.823Z,16.31
2023-07-24T15:44:32.623Z,16.06
2023-07-24T15:46:59.185Z,16.11
2023-07-24T15:49:25.773Z,16.45
2023-07-24T15:51:52.619Z,16.44
2023-07-24T15:54:19.121Z,16.53
2023-07-24T15:56:45.898Z,16.41
2023-07-24T15:59:12.652Z,16.23
2023-07-24T16:01:39.392Z,16.35
2023-07-24T16:04:06.106Z,16.46
2023-07-24T16:06:32.708Z,16.75
2023-07-24T16:09:01.575Z,16.70
2023-07-24T16:11:29.468Z,16.45
2023-07-24T16:13:56.637Z,16.58
2023-07-24T16:16:23.168Z,17.01
2023-07-24T16:19:15.882Z,17.18
2023-07-24T16:21:43.847Z,17.12
2023-07-24T16:24:10.900Z,17.55
2023-07-24T16:26:37.872Z,17.87
2023-07-24T16:29:08.057Z,18.40
2023-07-24T16:31:36.722Z,18.66
2023-07-24T16:34:04.326Z,18.44
2023-07-24T16:36:36.149Z,18.08
2023-07-24T16:39:06.966Z,17.45
2023-07-24T16:41:34.058Z,17.25
2023-07-24T16:44:02.877Z,16.85
2023-07-24T16:46:29.978Z,16.97
2023-07-24T16:48:56.519Z,17.15
2023-07-24T16:51:23.328Z,17.28
2023-07-24T16:53:55.388Z,17.31
2023-07-24T16:56:21.942Z,17.78
2023-07-24T16:58:48.945Z,17.38
2023-07-24T17:01:15.687Z,17.41
2023-07-24T17:03:42.261Z,17.46
2023-07-24T17:06:08.901Z,17.54
2023-07-24T17:08:35.716Z,17.67
2023-07-24T17:11:02.233Z,18.04
2023-07-24T17:13:28.801Z,17.63
2023-07-24T17:15:55.390Z,17.96
2023-07-24T17:18:21.915Z,17.52
2023-07-24T17:20:51.540Z,17.30
2023-07-24T17:23:18.992Z,17.14
2023-07-24T17:25:48.192Z,17.74
2023-07-24T17:28:14.959Z,17.63
2023-07-24T17:30:42.035Z,17.52
2023-07-24T17:33:08.637Z,17.29
2023-07-24T17:35:35.662Z,17.08
2023-07-24T17:38:02.388Z,16.98
2023-07-24T17:40:29.278Z,17.16
2023-07-24T17:42:55.914Z,17.04
2023-07-24T17:45:22.538Z,17.07
2023-07-24T17:47:49.423Z,16.88
2023-07-24T17:50:16.006Z,16.81
2023-07-24T17:52:42.842Z,16.80
2023-07-24T17:55:09.521Z,16.81
2023-07-24T17:57:36.102Z,16.80
2023-07-24T18:00:02.841Z,16.70
2023-07-24T18:02:29.471Z,16.64
2023-07-24T18:04:56.331Z,16.64
2023-07-24T18:07:23.122Z,16.58
2023-07-24T18:09:49.717Z,16.57
2023-07-24T18:12:18.042Z,16.51
2023-07-24T18:14:44.587Z,16.47
2023-07-24T18:17:11.477Z,16.44
2023-07-24T18:19:38.079Z,16.39
2023-07-24T18:22:04.904Z,16.35
2023-07-24T18:24:32.080Z,16.33
2023-07-24T18:26:58.630Z,16.35
2023-07-24T18:29:25.164Z,16.32
2023-07-24T18:31:52.015Z,16.29
2023-07-24T18:34:20.569Z,16.30
2023-07-24T18:36:47.451Z,16.23
2023-07-24T18:39:14.000Z,16.18
2023-07-24T18:41:41.084Z,16.17
2023-07-24T18:44:07.634Z,16.13
2023-07-24T18:46:34.302Z,16.11
2023-07-24T18:49:01.109Z,16.09
2023-07-24T18:51:27.605Z,15.95
2023-07-24T18:53:54.059Z,15.88
2023-07-24T18:56:20.826Z,15.91
2023-07-24T18:58:49.771Z,15.84
2023-07-24T19:01:16.364Z,15.84
2023-07-24T19:03:45.869Z,15.83
2023-07-24T19:06:21.474Z,15.83
2023-07-24T19:08:49.097Z,15.75
2023-07-24T19:11:18.294Z,15.70
2023-07-24T19:13:44.988Z,15.70
2023-07-24T19:16:11.724Z,15.67
2023-07-24T19:18:38.545Z,15.63
2023-07-24T19:21:05.836Z,15.62
2023-07-24T19:23:33.239Z,15.60
2023-07-24T19:25:59.967Z,15.63
2023-07-24T19:28:29.346Z,15.58
2023-07-24T19:31:00.385Z,15.54
2023-07-24T19:33:27.254Z,15.53
2023-07-24T19:36:01.420Z,15.46
2023-07-24T19:38:29.446Z,15.34
2023-07-24T19:41:00.460Z,15.23
2023-07-24T19:43:27.581Z,15.13
2023-07-24T19:45:54.706Z,15.04
2023-07-24T19:48:22.193Z,15.08
2023-07-24T19:50:56.143Z,15.06
2023-07-24T19:53:25.363Z,15.00
2023-07-24T19:55:53.530Z,14.96
2023-07-24T19:58:31.873Z,15.02
2023-07-24T20:01:00.595Z,15.04
2023-07-24T20:03:27.488Z,15.06
2023-07-24T20:05:58.165Z,15.04
2023-07-24T20:08:26.199Z,15.00
2023-07-24T20:10:57.878Z,15.00
2023-07-24T20:13:25.447Z,14.99
2023-07-24T20:15:52.268Z,14.93
2023-07-24T20:18:18.826Z,14.97
2023-07-24T20:20:46.845Z,14.95
2023-07-24T20:23:16.723Z,14.92
2023-07-24T20:25:47.885Z,14.90
2023-07-24T20:28:15.123Z,14.91
2023-07-24T20:30:41.690Z,14.89
2023-07-24T20:33:08.318Z,14.87
2023-07-24T20:35:34.926Z,14.85
2023-07-24T20:38:05.907Z,14.85
2023-07-24T20:40:33.802Z,14.79
2023-07-24T20:43:00.913Z,14.74
2023-07-24T20:45:27.552Z,14.74
2023-07-24T20:47:54.373Z,14.63
2023-07-24T20:50:20.931Z,14.57
2023-07-24T20:52:47.516Z,14.53
2023-07-24T20:55:14.105Z,14.49
2023-07-24T20:57:40.674Z,14.45
2023-07-24T21:00:08.046Z,14.38
2023-07-24T21:02:34.614Z,14.31
2023-07-24T21:05:01.317Z,14.24
2023-07-24T21:07:27.994Z,14.19
2023-07-24T21:09:54.876Z,14.27
2023-07-24T21:12:21.431Z,14.31
2023-07-24T21:14:47.940Z,14.35
2023-07-24T21:17:14.496Z,14.32
2023-07-24T21:19:41.074Z,14.27
2023-07-24T21:22:07.818Z,14.28
2023-07-24T21:24:34.531Z,14.28
2023-07-24T21:27:01.164Z,14.29
2023-07-24T21:29:27.978Z,14.25
2023-07-24T21:31:54.521Z,14.23
2023-07-24T21:34:21.473Z,14.17
2023-07-24T21:36:47.982Z,14.15
2023-07-24T21:39:15.562Z,14.18
2023-07-24T21:41:42.454Z,14.20
2023-07-24T21:44:09.002Z,14.25
2023-07-24T21:46:35.994Z,14.23
2023-07-24T21:49:02.513Z,14.26
2023-07-24T21:51:29.402Z,14.24
2023-07-24T21:53:56.634Z,14.22
2023-07-24T21:56:23.250Z,14.17
2023-07-24T21:58:49.823Z,14.10
2023-07-24T22:01:21.306Z,14.10
2023-07-24T22:03:48.634Z,14.03
2023-07-24T22:06:15.502Z,13.95
2023-07-24T22:08:42.658Z,13.92
2023-07-24T22:11:14.514Z,13.83
2023-07-24T22:13:44.023Z,13.74
2023-07-24T22:16:12.224Z,13.63
2023-07-24T22:18:38.706Z,13.56
2023-07-24T22:21:05.990Z,13.45
2023-07-24T22:23:33.876Z,13.36
2023-07-24T22:26:03.755Z,13.28
2023-07-24T22:28:30.339Z,13.27
2023-07-24T22:30:56.924Z,13.26
2023-07-24T22:33:23.670Z,13.20
2023-07-24T22:35:58.523Z,13.13
2023-07-24T22:38:25.164Z,13.04
2023-07-24T22:40:51.700Z,12.97
2023-07-24T22:43:18.366Z,12.93
2023-07-24T22:45:44.976Z,12.88
2023-07-24T22:48:11.523Z,12.83
2023-07-24T22:50:38.116Z,12.81
2023-07-24T22:53:06.566Z,12.84
2023-07-24T22:55:33.109Z,12.85
2023-07-24T22:58:00.093Z,12.87
2023-07-24T23:00:27.054Z,12.89
2023-07-24T23:02:53.767Z,12.90
2023-07-24T23:05:20.606Z,12.87
2023-07-24T23:07:47.248Z,12.83
2023-07-24T23:10:13.821Z,12.80
2023-07-24T23:12:41.504Z,12.74
2023-07-24T23:15:08.245Z,12.69
2023-07-24T23:17:34.819Z,12.68
2023-07-24T23:20:01.378Z,12.67
2023-07-24T23:22:28.183Z,12.67
2023-07-24T23:24:54.745Z,12.68
2023-07-24T23:27:21.321Z,12.70
2023-07-24T23:29:48.280Z,12.73
2023-07-24T23:32:14.742Z,12.77
2023-07-24T23:34:41.517Z,12.77
2023-07-24T23:37:08.331Z,12.80
2023-07-24T23:39:35.095Z,12.83
2023-07-24T23:42:01.678Z,12.85
2023-07-24T23:44:28.343Z,12.90
2023-07-24T23:46:54.851Z,12.90
2023-07-24T23:49:21.429Z,12.90
2023-07-24T23:51:48.166Z,12.91
2023-07-24T23:54:14.726Z,12.90
2023-07-24T23:56:41.322Z,12.88
2023-07-24T23:59:07.929Z,12.88
